Time;durP1;ratioP1;P1;durP2;ratioP2;P2;SDS_P1;SDS_P2;PMS_P1;PMS_P2;Temp;Humidity;BMP_temperature;BMP_pressure;BME280_temperature;BME280_humidity;BME280_pressure;Samples;Min_cycle;Max_cycle;Signal;HPM_P1;HPM_P2
2023/08/23 00:01:36;;;;;;;12.77;9.33;;;;;;;;;;5094608;28;20023;-67
2023/08/23 00:04:01;;;;;;;17.70;8.87;;;;;;;;;;5102185;28;20354;-67
2023/08/23 00:06:26;;;;;;;17.60;9.03;;;;;;;;;;5111064;28;20655;-67
2023/08/23 00:08:51;;;;;;;16.30;8.63;;;;;;;;;;5094419;28;20256;-66
2023/08/23 00:11:17;;;;;;;12.70;9.23;;;;;;;;;;5094342;28;20034;-67
2023/08/23 00:13:42;;;;;;;16.00;10.07;;;;;;;;;;5101606;28;20487;-66
2023/08/23 00:16:07;;;;;;;16.17;9.87;;;;;;;;;;5094343;28;20023;-66
2023/08/23 00:18:32;;;;;;;13.87;8.67;;;;;;;;;;5094267;28;20067;-66
2023/08/23 00:20:57;;;;;;;17.93;8.97;;;;;;;;;;5099812;28;20035;-67
2023/08/23 00:23:23;;;;;;;16.80;9.52;;;;;;;;;;5111698;28;20268;-67
2023/08/23 00:25:48;;;;;;;15.40;9.87;;;;;;;;;;5094175;28;20099;-67
2023/08/23 00:28:15;;;;;;;17.70;9.43;;;;;;;;;;5094047;28;20119;-66
2023/08/23 00:30:47;;;;;;;16.60;9.73;;;;;;;;;;5096684;28;20114;-67
2023/08/23 00:33:12;;;;;;;20.27;9.63;;;;;;;;;;5112402;28;20372;-67
2023/08/23 00:35:37;;;;;;;17.87;9.37;;;;;;;;;;5113425;28;20111;-67
2023/08/23 00:38:03;;;;;;;16.20;9.17;;;;;;;;;;5113693;28;20026;-67
2023/08/23 00:40:31;;;;;;;17.40;9.45;;;;;;;;;;5113755;28;20023;-66
2023/08/23 00:42:56;;;;;;;17.63;9.05;;;;;;;;;;5110496;28;20020;-67
2023/08/23 00:45:21;;;;;;;16.33;8.23;;;;;;;;;;5112013;28;20089;-67
2023/08/23 00:47:47;;;;;;;20.93;9.30;;;;;;;;;;5099643;28;20036;-66
2023/08/23 00:50:12;;;;;;;11.83;8.40;;;;;;;;;;5093553;28;20024;-67
2023/08/23 00:52:37;;;;;;;15.10;8.93;;;;;;;;;;5094763;28;20338;-67
2023/08/23 00:55:03;;;;;;;12.45;9.00;;;;;;;;;;5099972;28;20480;-66
2023/08/23 00:57:28;;;;;;;16.15;9.18;;;;;;;;;;5103778;28;20035;-67
2023/08/23 00:59:53;;;;;;;12.45;7.82;;;;;;;;;;5093364;28;20035;-67
2023/08/23 01:02:19;;;;;;;13.15;9.88;;;;;;;;;;5093850;28;20061;-67
2023/08/23 01:04:44;;;;;;;12.73;9.83;;;;;;;;;;5109375;28;20106;-68
2023/08/23 01:07:11;;;;;;;17.50;8.40;;;;;;;;;;5093563;28;20388;-67
2023/08/23 01:09:39;;;;;;;12.23;7.78;;;;;;;;;;5101627;28;20077;-67
2023/08/23 01:12:13;;;;;;;16.80;8.20;;;;;;;;;;5093654;28;20020;-67
2023/08/23 01:14:38;;;;;;;10.05;6.90;;;;;;;;;;5111395;28;20030;-67
2023/08/23 01:17:03;;;;;;;12.13;6.57;;;;;;;;;;5113197;28;20036;-67
2023/08/23 01:19:36;;;;;;;19.33;8.32;;;;;;;;;;5105217;28;20020;-67
2023/08/23 01:22:03;;;;;;;15.38;9.57;;;;;;;;;;5103551;28;20524;-67
2023/08/23 01:24:28;;;;;;;13.82;7.78;;;;;;;;;;5107082;28;20031;-67
2023/08/23 01:26:53;;;;;;;13.48;8.55;;;;;;;;;;5093221;28;20024;-67
2023/08/23 01:29:19;;;;;;;14.07;9.63;;;;;;;;;;5094349;28;20016;-67
2023/08/23 01:31:45;;;;;;;20.97;10.80;;;;;;;;;;5094194;28;20252;-67
2023/08/23 01:34:15;;;;;;;15.25;9.73;;;;;;;;;;5093149;28;20469;-67
2023/08/23 01:36:41;;;;;;;15.20;9.27;;;;;;;;;;5093290;28;20077;-67
2023/08/23 01:39:07;;;;;;;17.90;8.55;;;;;;;;;;5106240;28;20074;-67
2023/08/23 01:41:33;;;;;;;15.70;10.10;;;;;;;;;;5112091;28;20027;-67
2023/08/23 01:43:58;;;;;;;16.98;9.60;;;;;;;;;;5093050;28;20355;-67
2023/08/23 01:46:24;;;;;;;13.25;8.63;;;;;;;;;;5092927;28;20121;-67
2023/08/23 01:48:49;;;;;;;13.43;8.70;;;;;;;;;;5101115;28;20059;-67
2023/08/23 01:51:14;;;;;;;10.57;8.03;;;;;;;;;;5092888;28;20043;-67
2023/08/23 01:53:39;;;;;;;11.37;8.37;;;;;;;;;;5110055;28;20098;-67
2023/08/23 01:56:04;;;;;;;13.70;9.27;;;;;;;;;;5112728;28;20429;-67
2023/08/23 01:58:30;;;;;;;11.17;8.83;;;;;;;;;;5112740;28;20561;-67
2023/08/23 02:00:55;;;;;;;14.80;9.10;;;;;;;;;;5112626;28;20024;-67
2023/08/23 02:03:20;;;;;;;11.60;8.87;;;;;;;;;;5111489;28;20347;-67
2023/08/23 02:05:46;;;;;;;17.50;9.70;;;;;;;;;;5112263;28;20267;-67
2023/08/23 02:08:12;;;;;;;13.25;9.55;;;;;;;;;;5112671;28;20285;-66
2023/08/23 02:10:37;;;;;;;11.55;8.18;;;;;;;;;;5105051;28;20020;-67
2023/08/23 02:13:06;;;;;;;12.80;8.67;;;;;;;;;;5106889;28;20034;-66
2023/08/23 02:15:31;;;;;;;13.25;7.82;;;;;;;;;;5116775;28;20024;-67
2023/08/23 02:17:57;;;;;;;10.13;8.48;;;;;;;;;;5116137;28;20018;-66
2023/08/23 02:20:22;;;;;;;14.30;7.33;;;;;;;;;;5111834;28;20020;-66
2023/08/23 02:22:47;;;;;;;15.87;9.83;;;;;;;;;;5111294;28;20256;-66
2023/08/23 02:25:12;;;;;;;13.47;9.30;;;;;;;;;;5115968;28;20307;-66
2023/08/23 02:27:38;;;;;;;12.90;8.87;;;;;;;;;;5116338;28;20095;-67
2023/08/23 02:30:03;;;;;;;15.10;9.37;;;;;;;;;;5108817;28;20289;-67
2023/08/23 02:32:28;;;;;;;13.68;8.55;;;;;;;;;;5110211;28;20019;-67
2023/08/23 02:34:53;;;;;;;12.37;8.30;;;;;;;;;;5116490;28;20031;-67
2023/08/23 02:37:18;;;;;;;13.03;8.83;;;;;;;;;;5117060;28;20011;-66
2023/08/23 02:39:44;;;;;;;12.33;8.57;;;;;;;;;;5115002;28;20342;-67
2023/08/23 02:42:09;;;;;;;10.98;7.60;;;;;;;;;;5102398;28;20027;-67
2023/08/23 02:44:34;;;;;;;11.60;7.50;;;;;;;;;;5095929;28;20540;-67
2023/08/23 02:46:59;;;;;;;9.88;8.27;;;;;;;;;;5096398;28;20050;-67
2023/08/23 02:49:25;;;;;;;12.80;9.53;;;;;;;;;;5102800;28;20028;-66
2023/08/23 02:51:50;;;;;;;14.50;9.05;;;;;;;;;;5115515;28;20487;-67
2023/08/23 02:54:15;;;;;;;9.80;7.93;;;;;;;;;;5111265;28;20027;-67
2023/08/23 02:56:40;;;;;;;10.67;8.27;;;;;;;;;;5095926;28;20305;-67
2023/08/23 02:59:05;;;;;;;19.47;9.43;;;;;;;;;;5098532;28;20263;-67
2023/08/23 03:01:31;;;;;;;17.47;10.23;;;;;;;;;;5115373;28;20014;-67
2023/08/23 03:03:56;;;;;;;15.20;8.70;;;;;;;;;;5099865;28;20249;-66
2023/08/23 03:06:21;;;;;;;13.73;8.83;;;;;;;;;;5115509;28;20403;-67
2023/08/23 03:08:46;;;;;;;14.15;8.70;;;;;;;;;;5114067;28;20248;-67
2023/08/23 03:11:12;;;;;;;12.37;7.80;;;;;;;;;;5115045;28;20027;-66
2023/08/23 03:13:37;;;;;;;10.73;8.47;;;;;;;;;;5103295;28;20070;-67
2023/08/23 03:16:02;;;;;;;10.57;8.83;;;;;;;;;;5095536;28;20322;-67
2023/08/23 03:18:27;;;;;;;16.30;10.13;;;;;;;;;;5096721;28;20024;-67
2023/08/23 03:20:52;;;;;;;11.97;9.67;;;;;;;;;;5115273;28;20338;-67
2023/08/23 03:23:18;;;;;;;11.70;9.30;;;;;;;;;;5114978;28;20268;-67
2023/08/23 03:25:44;;;;;;;16.73;11.15;;;;;;;;;;5115099;28;20036;-67
2023/08/23 03:28:09;;;;;;;18.55;10.35;;;;;;;;;;5115172;28;20095;-67
2023/08/23 03:30:34;;;;;;;16.40;10.53;;;;;;;;;;5096287;28;20057;-67
2023/08/23 03:32:59;;;;;;;13.73;9.20;;;;;;;;;;5095230;28;20026;-67
2023/08/23 03:35:26;;;;;;;18.00;9.23;;;;;;;;;;5095171;28;20245;-67
2023/08/23 03:37:51;;;;;;;16.23;10.57;;;;;;;;;;5096103;28;20462;-67
2023/08/23 03:40:17;;;;;;;15.83;9.97;;;;;;;;;;5095080;28;20104;-67
2023/08/23 03:42:42;;;;;;;14.13;9.40;;;;;;;;;;5094983;28;20020;-67
2023/08/23 03:45:07;;;;;;;13.00;9.90;;;;;;;;;;5094756;28;20061;-67
2023/08/23 03:47:33;;;;;;;12.52;8.75;;;;;;;;;;5094889;28;20419;-67
2023/08/23 03:49:58;;;;;;;11.13;8.15;;;;;;;;;;5111827;28;20031;-67
2023/08/23 03:52:23;;;;;;;12.50;9.80;;;;;;;;;;5114694;28;20066;-67
2023/08/23 03:54:48;;;;;;;17.57;10.27;;;;;;;;;;5114605;28;20031;-67
2023/08/23 03:57:13;;;;;;;20.90;11.50;;;;;;;;;;5113057;28;20024;-67
2023/08/23 03:59:39;;;;;;;13.00;9.17;;;;;;;;;;5114150;28;20012;-67
2023/08/23 04:02:04;;;;;;;12.82;9.35;;;;;;;;;;5106381;28;20036;-67
2023/08/23 04:04:29;;;;;;;20.10;10.50;;;;;;;;;;5094626;28;20055;-67
2023/08/23 04:06:54;;;;;;;15.60;9.50;;;;;;;;;;5094465;28;20051;-67
2023/08/23 04:09:19;;;;;;;14.13;9.07;;;;;;;;;;5113941;28;20020;-67
2023/08/23 04:11:45;;;;;;;11.70;8.53;;;;;;;;;;5114506;28;20479;-66
2023/08/23 04:14:10;;;;;;;18.83;8.47;;;;;;;;;;5096998;28;20759;-67
2023/08/23 04:16:35;;;;;;;11.77;9.82;;;;;;;;;;5114334;28;20016;-66
2023/08/23 04:19:00;;;;;;;13.27;9.53;;;;;;;;;;5097199;28;20100;-67
2023/08/23 04:21:26;;;;;;;10.93;9.07;;;;;;;;;;5094228;28;20026;-67
2023/08/23 04:23:52;;;;;;;12.52;8.93;;;;;;;;;;5094268;28;20012;-67
2023/08/23 04:26:17;;;;;;;13.30;9.30;;;;;;;;;;5094549;28;20020;-67
2023/08/23 04:28:42;;;;;;;9.68;8.18;;;;;;;;;;5107104;28;20026;-67
2023/08/23 04:31:08;;;;;;;23.85;9.95;;;;;;;;;;5114149;28;20023;-66
2023/08/23 04:33:35;;;;;;;35.13;9.57;;;;;;;;;;5114515;28;20094;-67
2023/08/23 04:36:00;;;;;;;47.40;10.95;;;;;;;;;;5104526;28;20032;-66
2023/08/23 04:38:25;;;;;;;18.20;10.48;;;;;;;;;;5112295;28;20117;-67
2023/08/23 04:40:58;;;;;;;13.50;10.23;;;;;;;;;;5113831;28;20099;-66
2023/08/23 04:43:23;;;;;;;;;;;;;;;;;;5113879;28;20023;-66
2023/08/23 04:45:48;;;;;;;17.70;10.98;;;;;;;;;;5113453;28;20064;-66
2023/08/23 04:48:14;;;;;;;27.37;11.27;;;;;;;;;;5096604;28;20157;-67
2023/08/23 04:50:39;;;;;;;12.80;9.85;;;;;;;;;;5075526;28;20028;-67
2023/08/23 04:53:04;;;;;;;16.53;12.17;;;;;;;;;;5093743;28;20020;-66
2023/08/23 04:55:30;;;;;;;23.42;13.00;;;;;;;;;;5093903;28;20318;-66
2023/08/23 04:57:55;;;;;;;28.80;13.80;;;;;;;;;;5107608;28;20491;-66
2023/08/23 05:00:20;;;;;;;18.60;12.67;;;;;;;;;;5113065;28;20264;-66
2023/08/23 05:02:45;;;;;;;24.83;13.83;;;;;;;;;;5093537;28;20503;-67
2023/08/23 05:05:10;;;;;;;14.57;9.97;;;;;;;;;;5093540;28;20260;-66
2023/08/23 05:07:36;;;;;;;16.27;10.97;;;;;;;;;;5104508;28;20026;-67
2023/08/23 05:10:01;;;;;;;20.08;11.70;;;;;;;;;;5113154;28;20019;-67
2023/08/23 05:12:26;;;;;;;17.43;11.70;;;;;;;;;;5104688;28;20024;-66
2023/08/23 05:14:51;;;;;;;14.23;10.13;;;;;;;;;;5094124;28;20016;-66
2023/08/23 05:17:17;;;;;;;20.00;11.37;;;;;;;;;;5094498;28;20317;-66
2023/08/23 05:19:42;;;;;;;17.27;10.27;;;;;;;;;;5093271;28;20273;-66
2023/08/23 05:22:07;;;;;;;17.90;12.23;;;;;;;;;;5093337;28;20020;-66
2023/08/23 05:24:32;;;;;;;16.10;11.83;;;;;;;;;;5094619;28;20461;-66
2023/08/23 05:26:57;;;;;;;16.13;11.30;;;;;;;;;;5102539;28;20024;-66
2023/08/23 05:29:23;;;;;;;12.80;9.57;;;;;;;;;;5100576;28;20641;-66
2023/08/23 05:31:48;;;;;;;13.73;9.93;;;;;;;;;;5093094;28;20016;-66
2023/08/23 05:34:13;;;;;;;17.63;10.63;;;;;;;;;;5109627;28;20069;-66
2023/08/23 05:36:38;;;;;;;15.90;10.97;;;;;;;;;;5099654;28;20030;-66
2023/08/23 05:39:04;;;;;;;19.75;10.77;;;;;;;;;;5112723;28;20050;-66
2023/08/23 05:41:29;;;;;;;23.10;10.40;;;;;;;;;;5112832;28;20098;-66
2023/08/23 05:43:54;;;;;;;18.35;9.88;;;;;;;;;;5112952;28;20098;-66
2023/08/23 05:46:20;;;;;;;18.17;9.47;;;;;;;;;;5097104;28;20178;-66
2023/08/23 05:48:45;;;;;;;21.95;9.88;;;;;;;;;;5116649;28;20008;-66
2023/08/23 05:51:10;;;;;;;15.77;8.68;;;;;;;;;;5116617;28;20028;-66
2023/08/23 05:53:35;;;;;;;15.65;9.23;;;;;;;;;;5117006;28;20015;-66
2023/08/23 05:56:01;;;;;;;13.63;9.23;;;;;;;;;;5115925;28;20531;-66
2023/08/23 05:58:26;;;;;;;15.90;9.50;;;;;;;;;;5097108;28;20016;-66
2023/08/23 06:00:51;;;;;;;17.57;9.10;;;;;;;;;;5112440;28;20059;-66
2023/08/23 06:03:17;;;;;;;18.88;9.10;;;;;;;;;;5116698;28;20267;-66
2023/08/23 06:05:43;;;;;;;14.70;9.38;;;;;;;;;;5116978;28;20019;-66
2023/08/23 06:08:08;;;;;;;13.25;8.73;;;;;;;;;;5098507;28;20024;-66
2023/08/23 06:10:34;;;;;;;13.90;8.45;;;;;;;;;;5109491;28;20374;-66
2023/08/23 06:12:59;;;;;;;15.73;7.88;;;;;;;;;;5109987;28;20017;-66
2023/08/23 06:15:24;;;;;;;13.90;7.73;;;;;;;;;;5096732;28;20470;-66
2023/08/23 06:17:49;;;;;;;12.40;7.63;;;;;;;;;;5116646;28;20537;-66
2023/08/23 06:20:15;;;;;;;10.38;6.93;;;;;;;;;;5116457;28;20019;-66
2023/08/23 06:22:40;;;;;;;13.73;8.52;;;;;;;;;;5116337;28;20031;-67
2023/08/23 06:25:06;;;;;;;9.73;6.43;;;;;;;;;;5098181;28;20478;-66
2023/08/23 06:27:31;;;;;;;12.10;7.35;;;;;;;;;;5097224;28;20032;-66
2023/08/23 06:29:56;;;;;;;11.13;7.40;;;;;;;;;;5096586;28;20016;-66
2023/08/23 06:32:25;;;;;;;17.77;7.30;;;;;;;;;;5103494;28;20020;-66
2023/08/23 06:34:50;;;;;;;12.27;6.28;;;;;;;;;;5098299;28;20070;-66
2023/08/23 06:37:15;;;;;;;11.70;7.05;;;;;;;;;;5096589;28;20017;-66
2023/08/23 06:39:40;;;;;;;10.63;6.73;;;;;;;;;;5104234;28;20076;-67
2023/08/23 06:42:05;;;;;;;9.07;5.90;;;;;;;;;;5116295;28;20031;-66
2023/08/23 06:44:31;;;;;;;12.75;6.80;;;;;;;;;;5099782;28;20389;-66
2023/08/23 06:46:56;;;;;;;10.40;6.60;;;;;;;;;;5115282;28;20122;-66
2023/08/23 06:49:21;;;;;;;12.83;7.57;;;;;;;;;;5114534;28;20752;-66
2023/08/23 06:51:46;;;;;;;9.30;6.43;;;;;;;;;;5115450;28;20264;-67
2023/08/23 06:54:12;;;;;;;11.07;7.07;;;;;;;;;;5115829;28;20259;-66
2023/08/23 06:56:37;;;;;;;20.03;8.47;;;;;;;;;;5099413;28;20020;-66
2023/08/23 06:59:02;;;;;;;13.40;7.83;;;;;;;;;;5113307;28;20035;-66
2023/08/23 07:01:27;;;;;;;9.40;6.57;;;;;;;;;;5115627;28;20465;-66
2023/08/23 07:03:52;;;;;;;18.10;8.27;;;;;;;;;;5115325;28;20043;-66
2023/08/23 07:06:19;;;;;;;17.73;9.00;;;;;;;;;;5102214;28;20031;-66
2023/08/23 07:08:44;;;;;;;15.75;7.75;;;;;;;;;;5110517;28;20069;-67
2023/08/23 07:11:09;;;;;;;13.10;8.57;;;;;;;;;;5095554;28;20024;-66
2023/08/23 07:13:36;;;;;;;14.77;8.63;;;;;;;;;;5083309;28;20024;-66
2023/08/23 07:16:01;;;;;;;16.80;8.75;;;;;;;;;;5113903;28;20042;-67
2023/08/23 07:18:26;;;;;;;17.38;8.93;;;;;;;;;;5115348;28;20020;-66
2023/08/23 07:20:52;;;;;;;13.73;8.43;;;;;;;;;;5109941;28;20043;-66
2023/08/23 07:23:17;;;;;;;21.20;8.83;;;;;;;;;;5102439;27;20056;-67
2023/08/23 07:25:44;;;;;;;17.53;9.53;;;;;;;;;;5099059;28;20264;-67
2023/08/23 07:28:09;;;;;;;16.42;8.52;;;;;;;;;;5101943;28;20024;-66
2023/08/23 07:30:34;;;;;;;18.30;9.77;;;;;;;;;;5094990;28;20397;-66
2023/08/23 07:32:59;;;;;;;18.97;8.63;;;;;;;;;;5094944;28;20349;-66
2023/08/23 07:35:24;;;;;;;13.93;7.93;;;;;;;;;;5100494;28;20170;-66
2023/08/23 07:37:50;;;;;;;14.57;8.00;;;;;;;;;;5097924;28;20016;-67
2023/08/23 07:40:15;;;;;;;15.27;8.50;;;;;;;;;;5115132;28;20027;-66
2023/08/23 07:42:41;;;;;;;15.70;7.80;;;;;;;;;;5114431;28;20111;-67
2023/08/23 07:45:07;;;;;;;13.18;7.22;;;;;;;;;;5095046;28;20052;-66
2023/08/23 07:47:33;;;;;;;13.48;7.07;;;;;;;;;;5099192;28;20114;-67
2023/08/23 07:49:58;;;;;;;17.53;7.40;;;;;;;;;;5114267;28;20532;-66
2023/08/23 07:52:23;;;;;;;13.03;7.20;;;;;;;;;;5095443;28;20020;-67
2023/08/23 07:54:48;;;;;;;13.90;7.03;;;;;;;;;;5094564;28;20306;-67
2023/08/23 07:57:13;;;;;;;14.03;7.10;;;;;;;;;;5094598;28;20016;-67
2023/08/23 07:59:39;;;;;;;13.80;7.10;;;;;;;;;;5094648;28;20550;-67
2023/08/23 08:02:04;;;;;;;17.20;7.27;;;;;;;;;;5111530;28;20065;-66
2023/08/23 08:04:30;;;;;;;14.02;6.95;;;;;;;;;;5112826;28;20059;-66
2023/08/23 08:06:55;;;;;;;12.10;7.63;;;;;;;;;;5107219;28;20024;-67
2023/08/23 08:09:21;;;;;;;13.30;7.03;;;;;;;;;;5093690;28;20036;-68
2023/08/23 08:11:46;;;;;;;14.32;6.65;;;;;;;;;;5094084;28;20385;-67
2023/08/23 08:14:11;;;;;;;15.43;6.25;;;;;;;;;;5094188;28;20031;-66
2023/08/23 08:16:36;;;;;;;14.30;6.67;;;;;;;;;;5094283;28;20035;-68
2023/08/23 08:19:02;;;;;;;12.57;6.30;;;;;;;;;;5094228;28;20024;-66
2023/08/23 08:21:27;;;;;;;14.43;7.00;;;;;;;;;;5093385;28;20457;-67
2023/08/23 08:23:52;;;;;;;13.60;5.67;;;;;;;;;;5110106;28;20050;-67
2023/08/23 08:26:17;;;;;;;15.23;6.03;;;;;;;;;;5113902;28;20023;-66
2023/08/23 08:28:43;;;;;;;17.70;6.57;;;;;;;;;;5113939;28;20023;-72
2023/08/23 08:31:09;;;;;;;11.02;5.85;;;;;;;;;;5094703;28;20024;-68
2023/08/23 08:33:35;;;;;;;13.90;5.78;;;;;;;;;;5093898;28;20027;-69
2023/08/23 08:36:00;;;;;;;19.48;5.85;;;;;;;;;;5093302;28;20558;-69
2023/08/23 08:38:25;;;;;;;11.37;6.17;;;;;;;;;;5093712;28;20373;-69
2023/08/23 08:40:51;;;;;;;12.17;5.50;;;;;;;;;;5109613;28;20305;-70
2023/08/23 08:43:17;;;;;;;10.82;5.80;;;;;;;;;;5113203;28;20122;-70
2023/08/23 08:45:42;;;;;;;14.15;5.15;;;;;;;;;;5113461;28;20114;-70
2023/08/23 08:48:07;;;;;;;17.40;5.25;;;;;;;;;;5113422;28;20106;-69
2023/08/23 08:50:33;;;;;;;16.20;4.90;;;;;;;;;;5099696;28;20020;-69
2023/08/23 08:53:00;;;;;;;10.05;4.88;;;;;;;;;;5093597;28;20805;-69
2023/08/23 08:55:27;;;;;;;9.23;4.63;;;;;;;;;;5113686;28;20098;-69
2023/08/23 08:57:53;;;;;;;11.63;5.07;;;;;;;;;;5113587;28;20011;-69
2023/08/23 09:00:22;;;;;;;8.13;4.93;;;;;;;;;;5101767;28;20024;-68
2023/08/23 09:02:47;;;;;;;8.98;4.60;;;;;;;;;;5093428;28;20024;-66
2023/08/23 09:05:13;;;;;;;11.85;4.88;;;;;;;;;;5092822;28;20020;-67
2023/08/23 09:07:39;;;;;;;9.43;4.85;;;;;;;;;;5093431;28;20039;-67
2023/08/23 09:10:05;;;;;;;9.80;5.32;;;;;;;;;;5093169;28;20031;-67
2023/08/23 09:12:30;;;;;;;12.13;4.68;;;;;;;;;;5093359;28;20016;-67
2023/08/23 09:14:56;;;;;;;10.33;4.40;;;;;;;;;;5093355;28;20020;-67
2023/08/23 09:17:25;;;;;;;9.27;4.85;;;;;;;;;;5093445;28;20046;-67
2023/08/23 09:19:51;;;;;;;11.05;5.53;;;;;;;;;;5092430;28;20020;-67
2023/08/23 09:22:20;;;;;;;8.60;4.43;;;;;;;;;;5092847;28;20050;-67
2023/08/23 09:24:46;;;;;;;9.57;4.07;;;;;;;;;;5109594;28;20435;-67
2023/08/23 09:27:11;;;;;;;8.60;4.70;;;;;;;;;;5100555;28;20044;-67
2023/08/23 09:29:37;;;;;;;8.90;4.57;;;;;;;;;;5092739;28;20667;-67
2023/08/23 09:32:04;;;;;;;11.75;4.63;;;;;;;;;;5108214;28;20076;-67
2023/08/23 09:34:29;;;;;;;10.13;4.57;;;;;;;;;;5112300;28;20035;-67
2023/08/23 09:37:04;;;;;;;10.90;4.30;;;;;;;;;;5110701;28;20020;-67
2023/08/23 09:39:30;;;;;;;11.80;4.28;;;;;;;;;;5103901;28;20066;-67
2023/08/23 09:42:03;;;;;;;11.25;4.45;;;;;;;;;;5094843;28;20058;-67
2023/08/23 09:44:29;;;;;;;9.77;3.95;;;;;;;;;;5112840;28;20500;-67
2023/08/23 09:46:56;;;;;;;16.02;4.70;;;;;;;;;;5113016;28;20491;-67
2023/08/23 09:49:21;;;;;;;8.77;3.85;;;;;;;;;;5100977;28;20127;-67
2023/08/23 09:51:48;;;;;;;13.07;4.22;;;;;;;;;;5092847;28;20107;-67
2023/08/23 09:54:16;;;;;;;9.82;3.92;;;;;;;;;;5093159;28;20035;-67
2023/08/23 09:56:42;;;;;;;13.32;4.57;;;;;;;;;;5104095;28;20539;-67
2023/08/23 09:59:08;;;;;;;8.60;4.43;;;;;;;;;;5109695;28;20039;-67
2023/08/23 10:01:33;;;;;;;19.38;3.78;;;;;;;;;;5111099;28;20027;-67
2023/08/23 10:03:59;;;;;;;11.03;4.50;;;;;;;;;;5112167;28;20023;-67
2023/08/23 10:06:25;;;;;;;8.88;3.88;;;;;;;;;;5096337;28;20296;-67
2023/08/23 10:08:50;;;;;;;8.75;4.20;;;;;;;;;;5092335;28;20069;-67
2023/08/23 10:11:18;;;;;;;6.27;3.80;;;;;;;;;;5092498;28;20020;-67
2023/08/23 10:13:43;;;;;;;9.20;3.67;;;;;;;;;;5092700;28;20403;-67
2023/08/23 10:16:09;;;;;;;6.68;3.67;;;;;;;;;;5092985;28;20081;-67
2023/08/23 10:18:34;;;;;;;7.75;3.78;;;;;;;;;;5092170;28;20020;-67
2023/08/23 10:21:02;;;;;;;9.98;4.38;;;;;;;;;;5092572;28;20115;-67
2023/08/23 10:23:29;;;;;;;7.43;3.85;;;;;;;;;;5092533;28;20035;-67
2023/08/23 10:25:54;;;;;;;12.82;4.03;;;;;;;;;;5102893;28;20366;-67
2023/08/23 10:28:19;;;;;;;8.35;4.15;;;;;;;;;;5104233;28;20094;-68
2023/08/23 10:30:46;;;;;;;7.68;3.72;;;;;;;;;;5092610;28;20355;-67
2023/08/23 10:33:12;;;;;;;8.25;3.72;;;;;;;;;;5093661;28;20035;-67
2023/08/23 10:35:39;;;;;;;7.00;3.50;;;;;;;;;;5095331;28;20016;-67
2023/08/23 10:38:05;;;;;;;11.55;3.90;;;;;;;;;;5096300;28;20556;-67
2023/08/23 10:40:31;;;;;;;8.52;3.17;;;;;;;;;;5096351;28;20107;-67
2023/08/23 10:42:57;;;;;;;7.15;3.17;;;;;;;;;;5096201;28;20028;-67
2023/08/23 10:45:22;;;;;;;8.38;3.53;;;;;;;;;;5095834;28;20048;-67
2023/08/23 10:47:49;;;;;;;7.28;3.50;;;;;;;;;;5095953;28;20042;-67
2023/08/23 10:50:14;;;;;;;7.82;3.65;;;;;;;;;;5095223;28;20032;-67
2023/08/23 10:52:40;;;;;;;9.82;3.50;;;;;;;;;;5095880;28;20047;-67
2023/08/23 10:55:05;;;;;;;10.00;3.33;;;;;;;;;;5095827;28;20363;-67
2023/08/23 10:57:31;;;;;;;7.32;2.67;;;;;;;;;;5102249;28;20425;-66
2023/08/23 10:59:56;;;;;;;5.22;2.90;;;;;;;;;;5104305;28;20020;-67
2023/08/23 11:02:21;;;;;;;9.33;3.20;;;;;;;;;;5096082;28;20484;-67
2023/08/23 11:04:47;;;;;;;10.90;3.33;;;;;;;;;;5095160;28;20031;-67
2023/08/23 11:07:14;;;;;;;5.15;3.05;;;;;;;;;;5095306;28;20039;-67
2023/08/23 11:09:40;;;;;;;7.35;3.63;;;;;;;;;;5096763;28;20077;-67
2023/08/23 11:12:05;;;;;;;9.35;4.15;;;;;;;;;;5095760;28;20523;-67
2023/08/23 11:14:30;;;;;;;6.97;3.90;;;;;;;;;;5095769;28;20354;-67
2023/08/23 11:16:56;;;;;;;7.73;3.50;;;;;;;;;;5100696;28;20027;-66
2023/08/23 11:19:21;;;;;;;9.60;3.97;;;;;;;;;;5112924;28;20729;-66
2023/08/23 11:21:46;;;;;;;5.87;3.97;;;;;;;;;;5106732;28;20024;-66
2023/08/23 11:24:11;;;;;;;7.17;4.00;;;;;;;;;;5095208;28;20035;-66
2023/08/23 11:26:36;;;;;;;5.73;3.30;;;;;;;;;;5095255;28;20015;-66
2023/08/23 11:29:05;;;;;;;7.25;3.60;;;;;;;;;;5095049;28;20016;-66
2023/08/23 11:31:34;;;;;;;8.65;2.90;;;;;;;;;;5095147;28;20123;-66
2023/08/23 11:34:05;;;;;;;7.95;3.30;;;;;;;;;;5109002;28;20102;-66
2023/08/23 11:36:31;;;;;;;7.00;2.65;;;;;;;;;;5103403;28;20016;-67
2023/08/23 11:38:59;;;;;;;9.30;3.13;;;;;;;;;;5094949;28;20051;-66
2023/08/23 11:41:28;;;;;;;4.47;2.42;;;;;;;;;;5094995;28;20040;-65
2023/08/23 11:43:54;;;;;;;7.85;3.15;;;;;;;;;;5095030;28;20381;-65
2023/08/23 11:46:19;;;;;;;6.07;3.08;;;;;;;;;;5094377;28;20044;-66
2023/08/23 11:48:44;;;;;;;9.17;3.13;;;;;;;;;;5105399;28;20035;-65
2023/08/23 11:51:09;;;;;;;8.73;3.10;;;;;;;;;;5094672;28;20024;-65
2023/08/23 11:53:35;;;;;;;7.17;3.33;;;;;;;;;;5094637;28;20016;-66
2023/08/23 11:56:00;;;;;;;4.80;3.30;;;;;;;;;;5094656;28;20012;-66
2023/08/23 11:58:25;;;;;;;7.45;3.38;;;;;;;;;;5094693;28;20477;-65
2023/08/23 12:00:50;;;;;;;6.35;3.75;;;;;;;;;;5094772;28;20051;-65
2023/08/23 12:03:16;;;;;;;9.63;3.97;;;;;;;;;;5094203;28;20016;-65
2023/08/23 12:05:41;;;;;;;5.95;3.95;;;;;;;;;;5094459;28;20636;-65
2023/08/23 12:08:06;;;;;;;5.90;3.27;;;;;;;;;;5094555;28;20028;-66
2023/08/23 12:10:32;;;;;;;7.23;3.23;;;;;;;;;;5094415;28;20028;-65
2023/08/23 12:12:57;;;;;;;9.50;3.53;;;;;;;;;;5094783;28;20020;-65
2023/08/23 12:15:22;;;;;;;5.93;3.13;;;;;;;;;;5095142;28;20292;-66
2023/08/23 12:17:48;;;;;;;9.97;3.80;;;;;;;;;;5093756;28;20261;-65
2023/08/23 12:20:13;;;;;;;11.13;3.50;;;;;;;;;;5094316;28;20031;-65
2023/08/23 12:22:43;;;;;;;6.07;3.10;;;;;;;;;;5094580;28;20028;-65
2023/08/23 12:25:09;;;;;;;3.97;2.75;;;;;;;;;;5094354;28;20548;-65
2023/08/23 12:27:34;;;;;;;4.90;2.90;;;;;;;;;;5094121;28;20053;-65
2023/08/23 12:29:59;;;;;;;6.47;3.72;;;;;;;;;;5094181;28;20020;-76
2023/08/23 12:32:24;;;;;;;7.67;2.70;;;;;;;;;;5094183;28;20027;-65
2023/08/23 12:34:50;;;;;;;6.60;2.90;;;;;;;;;;5094080;28;20027;-66
2023/08/23 12:37:15;;;;;;;7.67;3.17;;;;;;;;;;5109894;28;20019;-66
2023/08/23 12:39:40;;;;;;;5.55;2.97;;;;;;;;;;5113607;28;20486;-66
2023/08/23 12:42:06;;;;;;;6.65;3.20;;;;;;;;;;5088963;28;20119;-66
2023/08/23 12:44:32;;;;;;;6.60;3.50;;;;;;;;;;5093958;28;20027;-66
2023/08/23 12:46:58;;;;;;;5.53;3.00;;;;;;;;;;5094235;28;20062;-67
2023/08/23 12:49:23;;;;;;;4.70;2.83;;;;;;;;;;5095955;28;20086;-67
2023/08/23 12:51:48;;;;;;;8.82;3.30;;;;;;;;;;5114224;28;20662;-67
2023/08/23 12:54:15;;;;;;;7.50;3.97;;;;;;;;;;5114412;28;20501;-67
2023/08/23 12:56:40;;;;;;;5.53;2.97;;;;;;;;;;5109368;28;20055;-67
2023/08/23 12:59:05;;;;;;;8.47;3.40;;;;;;;;;;5097373;28;20110;-67
2023/08/23 13:01:31;;;;;;;7.50;3.05;;;;;;;;;;5096249;28;20117;-67
2023/08/23 13:03:56;;;;;;;8.25;3.25;;;;;;;;;;5108975;28;20098;-67
2023/08/23 13:06:21;;;;;;;7.37;3.27;;;;;;;;;;5102035;28;20477;-67
2023/08/23 13:08:46;;;;;;;5.05;3.40;;;;;;;;;;5106141;28;20027;-67
2023/08/23 13:11:12;;;;;;;13.13;3.63;;;;;;;;;;5109481;28;20106;-67
2023/08/23 13:13:39;;;;;;;10.07;3.70;;;;;;;;;;5096910;28;20027;-67
2023/08/23 13:16:04;;;;;;;8.40;3.60;;;;;;;;;;5096338;28;20084;-67
2023/08/23 13:18:30;;;;;;;7.43;3.40;;;;;;;;;;5103128;28;20448;-68
2023/08/23 13:20:55;;;;;;;9.32;3.50;;;;;;;;;;5099477;28;20283;-67
2023/08/23 13:23:20;;;;;;;4.53;2.90;;;;;;;;;;5109983;28;20408;-67
2023/08/23 13:25:45;;;;;;;8.90;3.83;;;;;;;;;;5096654;28;20385;-67
2023/08/23 13:28:11;;;;;;;6.30;2.87;;;;;;;;;;5106500;28;20462;-67
2023/08/23 13:30:36;;;;;;;10.67;3.83;;;;;;;;;;5096449;28;20016;-67
2023/08/23 13:33:01;;;;;;;6.87;3.23;;;;;;;;;;5111363;28;20035;-67
2023/08/23 13:35:26;;;;;;;7.45;3.17;;;;;;;;;;5096514;28;20012;-67
2023/08/23 13:37:52;;;;;;;9.70;3.80;;;;;;;;;;5108878;28;20517;-67
2023/08/23 13:40:17;;;;;;;9.63;3.73;;;;;;;;;;5101039;28;20023;-67
2023/08/23 13:42:42;;;;;;;6.80;3.33;;;;;;;;;;5101215;28;20484;-67
2023/08/23 13:45:08;;;;;;;7.70;3.33;;;;;;;;;;5094452;28;20684;-67
2023/08/23 13:47:33;;;;;;;9.13;3.75;;;;;;;;;;5109632;28;20027;-68
2023/08/23 13:49:59;;;;;;;7.57;3.30;;;;;;;;;;5098487;28;20035;-68
2023/08/23 13:52:24;;;;;;;6.13;3.10;;;;;;;;;;5104225;28;20260;-69
2023/08/23 13:54:49;;;;;;;5.97;3.03;;;;;;;;;;5095765;28;20327;-68
2023/08/23 13:57:15;;;;;;;5.88;3.50;;;;;;;;;;5094623;28;20032;-71
2023/08/23 13:59:40;;;;;;;7.33;3.33;;;;;;;;;;5103798;28;20028;-73
2023/08/23 14:02:05;;;;;;;6.67;3.33;;;;;;;;;;5079173;28;20264;-73
2023/08/23 14:04:36;;;;;;;9.43;3.40;;;;;;;;;;5099640;28;20263;-71
2023/08/23 14:07:01;;;;;;;9.25;3.03;;;;;;;;;;5101878;28;20496;-70
2023/08/23 14:09:26;;;;;;;6.60;3.92;;;;;;;;;;5102963;28;20095;-71
2023/08/23 14:11:53;;;;;;;8.00;3.30;;;;;;;;;;5105702;28;20024;-71
2023/08/23 14:14:18;;;;;;;5.32;2.97;;;;;;;;;;5100928;28;20016;-71
2023/08/23 14:16:44;;;;;;;8.97;3.27;;;;;;;;;;5112106;28;20012;-71
2023/08/23 14:19:10;;;;;;;6.40;3.43;;;;;;;;;;5101787;28;20269;-70
2023/08/23 14:21:35;;;;;;;6.40;3.17;;;;;;;;;;5106454;28;20019;-70
2023/08/23 14:24:00;;;;;;;7.93;3.60;;;;;;;;;;5105313;28;20028;-70